Time;durP1;ratioP1;P1;durP2;ratioP2;P2;SDS_P1;SDS_P2;PMS_P1;PMS_P2;Temp;Humidity;BMP_temperature;BMP_pressure;BME280_temperature;BME280_humidity;BME280_pressure;Samples;Min_cycle;Max_cycle;Signal;HPM_P1;HPM_P2
2023/10/14 00:00:53;;;;;;;;;;;19.70;77.10;;;;;;5095365;28;19926;-69
2023/10/14 00:03:33;;;;;;;;;;;19.60;77.00;;;;;;5096713;28;19920;-69
2023/10/14 00:06:05;;;;;;;;;;;19.70;77.20;;;;;;5096765;28;19974;-69
2023/10/14 00:08:31;;;;;;;;;;;19.70;77.10;;;;;;5096363;28;19920;-69
2023/10/14 00:11:01;;;;;;;;;;;19.60;77.10;;;;;;5114490;28;20429;-69
2023/10/14 00:13:31;;;;;;;;;;;19.60;77.10;;;;;;5096820;28;19926;-69
2023/10/14 00:16:01;;;;;;;;;;;19.60;77.10;;;;;;5096527;28;19927;-69
2023/10/14 00:18:27;;;;;;;;;;;19.60;77.10;;;;;;5114705;28;20367;-69
2023/10/14 00:20:53;;;;;;;;;;;19.60;77.00;;;;;;5096016;28;19964;-70
2023/10/14 00:23:23;;;;;;;;;;;19.60;77.10;;;;;;5096105;28;19964;-69
2023/10/14 00:25:49;;;;;;;;;;;19.60;77.10;;;;;;5095231;28;19920;-69
2023/10/14 00:28:19;;;;;;;;;;;19.50;77.00;;;;;;5096245;28;19919;-69
2023/10/14 00:30:45;;;;;;;;;;;19.60;77.10;;;;;;5114349;28;19920;-70
2023/10/14 00:33:12;;;;;;;;;;;19.50;77.00;;;;;;5096240;28;20385;-70
2023/10/14 00:35:41;;;;;;;;;;;19.50;77.10;;;;;;5095952;28;20005;-69
2023/10/14 00:38:13;;;;;;;;;;;19.60;77.10;;;;;;5096182;28;19923;-69
2023/10/14 00:40:39;;;;;;;;;;;19.50;77.10;;;;;;5095604;28;19919;-72
2023/10/14 00:43:06;;;;;;;;;;;19.50;77.10;;;;;;5114205;28;19920;-69
2023/10/14 00:45:31;;;;;;;;;;;19.50;77.00;;;;;;5113908;28;19920;-69
2023/10/14 00:47:59;;;;;;;;;;;19.50;77.10;;;;;;5113875;28;20401;-69
2023/10/14 00:50:33;;;;;;;;;;;19.50;77.00;;;;;;5095584;28;19920;-69
2023/10/14 00:53:00;;;;;;;;;;;19.50;77.00;;;;;;5095782;28;20049;-69
2023/10/14 00:55:34;;;;;;;;;;;19.50;77.00;;;;;;5095483;28;19927;-69
2023/10/14 00:58:00;;;;;;;;;;;19.50;76.90;;;;;;5095648;28;19919;-69
2023/10/14 01:00:37;;;;;;;;;;;19.50;77.00;;;;;;5113743;28;20260;-69
2023/10/14 01:03:07;;;;;;;;;;;19.50;76.90;;;;;;5095471;28;20002;-69
2023/10/14 01:05:35;;;;;;;;;;;19.40;76.90;;;;;;5113389;28;20419;-69
2023/10/14 01:08:07;;;;;;;;;;;19.50;76.90;;;;;;5095598;28;19942;-69
2023/10/14 01:10:34;;;;;;;;;;;19.50;76.90;;;;;;5095143;28;19920;-69
2023/10/14 01:13:06;;;;;;;;;;;19.40;76.80;;;;;;5113504;28;20295;-69
2023/10/14 01:15:33;;;;;;;;;;;19.40;76.80;;;;;;5095396;28;19919;-69
2023/10/14 01:18:00;;;;;;;;;;;19.40;76.80;;;;;;5129402;27;19919;-69
2023/10/14 01:20:35;;;;;;;;;;;19.40;76.80;;;;;;5094978;28;19928;-69
2023/10/14 01:23:07;;;;;;;;;;;19.40;76.80;;;;;;5094884;28;20332;-69
2023/10/14 01:25:33;;;;;;;;;;;19.40;76.80;;;;;;5095070;28;19955;-69
2023/10/14 01:27:59;;;;;;;;;;;19.30;76.80;;;;;;5095033;28;20331;-71
2023/10/14 01:30:26;;;;;;;;;;;19.30;76.80;;;;;;5113021;28;20387;-69
2023/10/14 01:32:52;;;;;;;;;;;19.30;76.80;;;;;;5094948;28;19923;-68
2023/10/14 01:35:40;;;;;;;;;;;19.30;76.80;;;;;;5113216;28;19924;-69
2023/10/14 01:38:05;;;;;;;;;;;19.30;76.70;;;;;;5094467;28;20014;-69
2023/10/14 01:40:40;;;;;;;;;;;19.30;76.70;;;;;;5113126;28;19923;-69
2023/10/14 01:43:06;;;;;;;;;;;19.30;76.70;;;;;;5094633;28;19924;-69
2023/10/14 01:45:39;;;;;;;;;;;19.30;76.70;;;;;;5094839;28;19919;-69
2023/10/14 01:50:54;;;;;;;;;;;19.30;76.70;;;;;;5110312;27;19918;-69
2023/10/14 01:53:23;;;;;;;;;;;19.20;77.30;;;;;;5108900;28;19920;-69
2023/10/14 01:55:52;;;;;;;;;;;19.30;76.70;;;;;;5108840;28;20006;-69
2023/10/14 01:58:22;;;;;;;;;;;19.20;76.60;;;;;;5110140;28;19920;-69
2023/10/14 02:00:53;;;;;;;;;;;19.20;76.60;;;;;;5109206;28;19919;-69
2023/10/14 02:03:20;;;;;;;;;;;19.20;76.60;;;;;;5108769;28;19946;-72
2023/10/14 02:05:45;;;;;;;;;;;19.20;76.50;;;;;;5109037;28;20313;-69
2023/10/14 02:08:14;;;;;;;;;;;19.20;76.50;;;;;;5108888;28;19928;-72
2023/10/14 02:10:58;;;;;;;;;;;19.20;76.50;;;;;;5108544;28;19928;-69
2023/10/14 02:13:23;;;;;;;;;;;19.20;76.50;;;;;;5108525;28;19926;-69
2023/10/14 02:15:50;;;;;;;;;;;19.20;76.50;;;;;;5108499;28;20002;-69
2023/10/14 02:18:21;;;;;;;;;;;19.20;76.50;;;;;;5109653;28;19956;-70
2023/10/14 02:21:18;;;;;;;;;;;19.20;76.50;;;;;;5108745;28;19920;-69
2023/10/14 02:23:43;;;;;;;;;;;19.20;76.40;;;;;;5109521;28;20001;-71
2023/10/14 02:26:25;;;;;;;;;;;19.20;76.40;;;;;;5108367;28;20420;-69
2023/10/14 02:28:52;;;;;;;;;;;19.20;76.40;;;;;;5108435;28;19945;-70
2023/10/14 02:31:50;;;;;;;;;;;19.20;76.40;;;;;;5108561;28;20004;-69
2023/10/14 02:34:06;;;;;;;;;;;19.10;76.40;;;;;;5109211;28;19920;-69
2023/10/14 02:36:35;;;;;;;;;;;19.10;76.40;;;;;;5108221;28;19923;-69
2023/10/14 02:39:22;;;;;;;;;;;19.10;76.30;;;;;;5108143;28;19930;-69
2023/10/14 02:42:19;;;;;;;;;;;19.10;76.30;;;;;;5108087;28;19949;-72
2023/10/14 02:44:44;;;;;;;;;;;19.10;76.30;;;;;;5108078;28;20014;-69
2023/10/14 02:47:09;;;;;;;;;;;19.10;76.30;;;;;;5107987;28;19920;-69
2023/10/14 02:49:38;;;;;;;;;;;19.10;76.20;;;;;;5107647;28;19928;-69
2023/10/14 02:52:12;;;;;;;;;;;19.10;76.20;;;;;;5109178;28;19920;-69
2023/10/14 02:54:43;;;;;;;;;;;19.10;76.20;;;;;;5107706;28;19920;-69
2023/10/14 02:57:39;;;;;;;;;;;19.10;76.20;;;;;;5109011;28;19920;-69
2023/10/14 02:59:55;;;;;;;;;;;19.10;76.20;;;;;;5106994;28;19920;-69
2023/10/14 03:07:50;;;;;;;;;;;19.00;76.10;;;;;;5110323;27;19966;-69
2023/10/14 03:12:57;;;;;;;;;;;19.00;76.10;;;;;;5110297;27;20389;-69
2023/10/14 03:15:23;;;;;;;;;;;19.00;76.00;;;;;;5108819;28;19920;-69
2023/10/14 03:17:55;;;;;;;;;;;19.00;76.00;;;;;;5108796;28;19919;-70
2023/10/14 03:23:17;;;;;;;;;;;19.00;76.00;;;;;;5110209;27;19919;-69
2023/10/14 03:25:43;;;;;;;;;;;18.90;75.90;;;;;;5109170;28;20035;-70
2023/10/14 03:28:13;;;;;;;;;;;19.00;75.90;;;;;;5108907;28;19927;-69
2023/10/14 03:30:44;;;;;;;;;;;19.00;75.90;;;;;;5108855;28;19974;-69
2023/10/14 03:33:10;;;;;;;;;;;18.90;75.90;;;;;;5110324;28;20001;-69
2023/10/14 03:35:37;;;;;;;;;;;19.00;75.90;;;;;;5109017;28;19920;-69
2023/10/14 03:38:25;;;;;;;;;;;18.90;75.80;;;;;;5109042;28;19920;-69
2023/10/14 03:43:30;;;;;;;;;;;18.90;75.80;;;;;;5110366;27;19912;-69
2023/10/14 03:45:58;;;;;;;;;;;18.90;75.80;;;;;;5109164;28;19920;-69
2023/10/14 03:48:45;;;;;;;;;;;18.90;75.80;;;;;;5109209;28;19920;-70
2023/10/14 03:51:10;;;;;;;;;;;18.90;75.80;;;;;;5109910;28;19924;-69
2023/10/14 03:53:36;;;;;;;;;;;18.90;75.80;;;;;;5109126;28;19994;-69
2023/10/14 03:56:01;;;;;;;;;;;18.90;75.70;;;;;;5109091;28;19931;-69
2023/10/14 03:58:30;;;;;;;;;;;18.90;75.80;;;;;;5109166;28;20361;-69
2023/10/14 04:00:57;;;;;;;;;;;18.80;75.70;;;;;;5108992;28;19970;-69
2023/10/14 04:03:54;;;;;;;;;;;18.80;75.60;;;;;;5108748;28;19969;-69
2023/10/14 04:06:08;;;;;;;;;;;18.90;75.60;;;;;;5108209;28;19920;-69
2023/10/14 04:08:39;;;;;;;;;;;18.90;75.60;;;;;;5109782;28;19920;-69
2023/10/14 04:11:13;;;;;;;;;;;18.80;75.60;;;;;;5108671;28;19920;-69
2023/10/14 04:13:42;;;;;;;;;;;18.90;75.60;;;;;;5108424;28;19920;-69
2023/10/14 04:16:11;;;;;;;;;;;18.80;75.50;;;;;;5108711;28;19985;-69
2023/10/14 04:18:37;;;;;;;;;;;18.80;75.40;;;;;;5108210;28;20001;-69
2023/10/14 04:26:34;;;;;;;;;;;18.80;75.40;;;;;;5109229;28;19926;-69
2023/10/14 04:29:02;;;;;;;;;;;18.80;75.40;;;;;;5108068;28;19919;-68
2023/10/14 04:31:39;;;;;;;;;;;18.80;75.30;;;;;;5107990;28;19920;-69
2023/10/14 04:34:06;;;;;;;;;;;18.80;75.30;;;;;;5107977;28;20282;-69
2023/10/14 04:36:37;;;;;;;;;;;18.80;75.40;;;;;;5109372;28;19955;-70
2023/10/14 04:39:11;;;;;;;;;;;18.80;75.30;;;;;;5109109;28;19927;-69
2023/10/14 04:41:46;;;;;;;;;;;18.80;75.30;;;;;;5107771;28;19931;-69
2023/10/14 04:44:12;;;;;;;;;;;18.70;75.20;;;;;;5107721;28;19924;-69
2023/10/14 04:47:17;;;;;;;;;;;18.70;75.10;;;;;;5107731;28;19966;-69
2023/10/14 04:49:35;;;;;;;;;;;18.70;75.10;;;;;;5107449;28;19920;-69
2023/10/14 04:52:02;;;;;;;;;;;18.70;75.10;;;;;;5107905;28;20002;-70
2023/10/14 04:54:29;;;;;;;;;;;18.80;75.10;;;;;;5095860;28;19971;-69
2023/10/14 04:56:57;;;;;;;;;;;18.70;75.10;;;;;;5093965;28;20436;-69
2023/10/14 04:59:24;;;;;;;;;;;18.70;75.10;;;;;;5094129;28;19920;-71
2023/10/14 05:01:50;;;;;;;;;;;18.70;75.10;;;;;;5094255;28;19943;-69
2023/10/14 05:04:20;;;;;;;;;;;18.70;75.10;;;;;;5128360;27;20355;-69
2023/10/14 05:06:47;;;;;;;;;;;18.70;75.00;;;;;;5094074;28;19920;-69
2023/10/14 05:09:29;;;;;;;;;;;18.70;75.00;;;;;;5093923;28;19946;-69
2023/10/14 05:11:55;;;;;;;;;;;18.70;75.00;;;;;;5093805;28;19947;-69
2023/10/14 05:14:33;;;;;;;;;;;18.60;74.90;;;;;;5093659;28;20383;-69
2023/10/14 05:17:05;;;;;;;;;;;18.70;74.90;;;;;;5093661;28;20371;-72
2023/10/14 05:19:35;;;;;;;;;;;18.70;74.90;;;;;;5093775;28;19920;-69
2023/10/14 05:22:05;;;;;;;;;;;18.70;74.80;;;;;;5094792;28;20016;-71
2023/10/14 05:24:31;;;;;;;;;;;18.60;74.80;;;;;;5093681;28;19920;-69
2023/10/14 05:27:00;;;;;;;;;;;18.60;74.80;;;;;;5093428;28;20524;-69
2023/10/14 05:29:27;;;;;;;;;;;18.60;74.80;;;;;;5094663;28;19926;-69
2023/10/14 05:31:52;;;;;;;;;;;18.60;74.80;;;;;;5094992;28;19924;-69
2023/10/14 05:34:24;;;;;;;;;;;18.60;74.80;;;;;;5093203;28;19942;-70
2023/10/14 05:36:55;;;;;;;;;;;18.60;74.80;;;;;;5093606;28;19924;-69
2023/10/14 05:39:22;;;;;;;;;;;18.60;74.80;;;;;;5093694;28;19923;-69
2023/10/14 05:41:48;;;;;;;;;;;18.60;74.80;;;;;;5092987;28;19924;-69
2023/10/14 05:44:14;;;;;;;;;;;18.60;74.80;;;;;;5093037;28;19946;-69
2023/10/14 05:46:41;;;;;;;;;;;18.50;74.70;;;;;;5094394;28;19920;-69
2023/10/14 05:49:07;;;;;;;;;;;18.60;74.70;;;;;;5093011;28;20007;-69
2023/10/14 05:51:33;;;;;;;;;;;18.60;74.70;;;;;;5094220;28;20014;-69
2023/10/14 05:53:58;;;;;;;;;;;18.60;74.70;;;;;;5093008;28;20397;-69
2023/10/14 05:56:27;;;;;;;;;;;18.60;74.70;;;;;;5093106;28;19927;-69
2023/10/14 05:58:53;;;;;;;;;;;18.50;74.70;;;;;;5092831;28;19923;-69
2023/10/14 06:01:19;;;;;;;;;;;18.50;74.60;;;;;;5093020;28;19920;-70
2023/10/14 06:03:45;;;;;;;;;;;18.50;74.70;;;;;;5092733;28;20390;-69
2023/10/14 06:06:14;;;;;;;;;;;18.50;74.70;;;;;;5091969;28;19924;-69
2023/10/14 06:08:41;;;;;;;;;;;18.50;74.70;;;;;;5092975;28;19920;-69
2023/10/14 06:11:07;;;;;;;;;;;18.50;74.70;;;;;;5092668;28;19927;-69
2023/10/14 06:13:34;;;;;;;;;;;18.50;74.70;;;;;;5092610;28;20492;-69
2023/10/14 06:16:03;;;;;;;;;;;18.50;74.60;;;;;;5093787;28;19955;-71
2023/10/14 06:18:29;;;;;;;;;;;18.50;74.60;;;;;;5092343;28;19920;-69
2023/10/14 06:20:56;;;;;;;;;;;18.50;74.60;;;;;;5092669;28;19920;-69
2023/10/14 06:23:23;;;;;;;;;;;18.50;74.60;;;;;;5126819;27;19973;-69
2023/10/14 06:25:48;;;;;;;;;;;18.50;74.50;;;;;;5092455;28;19920;-69
2023/10/14 06:28:14;;;;;;;;;;;18.40;74.40;;;;;;5092555;28;19942;-70
2023/10/14 06:30:40;;;;;;;;;;;18.50;74.50;;;;;;5092239;28;19920;-69
2023/10/14 06:33:05;;;;;;;;;;;18.50;74.50;;;;;;5093322;28;20031;-68
2023/10/14 06:35:32;;;;;;;;;;;18.50;74.50;;;;;;5092452;28;19958;-69
2023/10/14 06:37:58;;;;;;;;;;;18.40;74.40;;;;;;5093619;28;19920;-71
2023/10/14 06:40:24;;;;;;;;;;;18.50;74.50;;;;;;5092349;28;20383;-69
2023/10/14 06:42:50;;;;;;;;;;;18.50;74.50;;;;;;5091822;28;19924;-69
2023/10/14 06:45:21;;;;;;;;;;;18.40;74.40;;;;;;5091901;28;20011;-69
2023/10/14 06:47:50;;;;;;;;;;;18.50;74.50;;;;;;5090785;28;19959;-69
2023/10/14 06:50:20;;;;;;;;;;;18.40;74.40;;;;;;5092184;28;19920;-71
2023/10/14 06:52:47;;;;;;;;;;;18.40;74.30;;;;;;5090370;28;19948;-69
2023/10/14 06:55:12;;;;;;;;;;;18.40;74.30;;;;;;5090459;28;19973;-68
2023/10/14 06:57:38;;;;;;;;;;;18.50;74.30;;;;;;5090250;28;19923;-69
2023/10/14 07:00:12;;;;;;;;;;;18.40;74.10;;;;;;5092269;28;19920;-68
2023/10/14 07:02:38;;;;;;;;;;;18.40;74.00;;;;;;5090739;28;19924;-68
2023/10/14 07:05:04;;;;;;;;;;;18.40;73.90;;;;;;5090145;28;19927;-69
2023/10/14 07:07:29;;;;;;;;;;;18.50;73.90;;;;;;5090907;28;19946;-69
2023/10/14 07:09:55;;;;;;;;;;;18.50;73.80;;;;;;5091815;28;19920;-69
2023/10/14 07:12:21;;;;;;;;;;;18.50;73.80;;;;;;5092316;28;20402;-69
2023/10/14 07:14:47;;;;;;;;;;;18.40;73.60;;;;;;5092610;28;19920;-69
2023/10/14 07:17:17;;;;;;;;;;;18.40;73.60;;;;;;5090954;28;20341;-69
2023/10/14 07:19:43;;;;;;;;;;;18.40;73.40;;;;;;5091398;28;19958;-68
2023/10/14 07:22:09;;;;;;;;;;;18.40;73.40;;;;;;5092558;28;20372;-68
2023/10/14 07:24:35;;;;;;;;;;;18.50;73.40;;;;;;5090810;28;19963;-68
2023/10/14 07:27:02;;;;;;;;;;;18.40;73.20;;;;;;5090209;28;19920;-70
2023/10/14 07:29:28;;;;;;;;;;;18.50;73.20;;;;;;5091408;28;19920;-70
2023/10/14 07:31:53;;;;;;;;;;;18.50;73.10;;;;;;5090527;28;19972;-69
2023/10/14 07:34:19;;;;;;;;;;;18.50;73.10;;;;;;5089940;28;20279;-70
2023/10/14 07:36:44;;;;;;;;;;;18.50;73.10;;;;;;5091014;28;19926;-69
2023/10/14 07:39:41;;;;;;;;;;;18.50;73.10;;;;;;5091474;28;20405;-70
2023/10/14 07:41:56;;;;;;;;;;;18.50;73.00;;;;;;5089933;28;19924;-68
2023/10/14 07:44:23;;;;;;;;;;;18.50;72.90;;;;;;5092153;28;19931;-70
2023/10/14 07:46:50;;;;;;;;;;;18.60;72.90;;;;;;5091070;28;19920;-69
2023/10/14 07:49:15;;;;;;;;;;;18.60;72.80;;;;;;5090890;28;19924;-69
2023/10/14 07:51:42;;;;;;;;;;;18.60;72.70;;;;;;5091987;28;20280;-69
2023/10/14 07:54:08;;;;;;;;;;;18.60;72.60;;;;;;5090971;28;20272;-68
2023/10/14 07:56:34;;;;;;;;;;;18.60;72.50;;;;;;5090993;28;19934;-69
2023/10/14 07:59:01;;;;;;;;;;;18.60;72.40;;;;;;5091324;28;20014;-69
2023/10/14 08:01:26;;;;;;;;;;;18.60;72.30;;;;;;5090705;28;19935;-69
2023/10/14 08:03:59;;;;;;;;;;;18.60;72.20;;;;;;5090680;28;19920;-70
2023/10/14 08:06:25;;;;;;;;;;;18.60;72.20;;;;;;5090350;28;19931;-70
2023/10/14 08:08:50;;;;;;;;;;;18.60;72.10;;;;;;5092944;28;19920;-70
2023/10/14 08:11:16;;;;;;;;;;;18.60;72.10;;;;;;5089926;28;19920;-69
2023/10/14 08:13:42;;;;;;;;;;;18.60;72.00;;;;;;5089359;28;19920;-70
2023/10/14 08:16:08;;;;;;;;;;;18.70;72.00;;;;;;5089931;28;19920;-69
2023/10/14 08:18:33;;;;;;;;;;;18.60;71.80;;;;;;5091263;28;19920;-69
2023/10/14 08:21:00;;;;;;;;;;;18.70;71.70;;;;;;5092075;28;20302;-69
2023/10/14 08:23:26;;;;;;;;;;;18.70;71.70;;;;;;5090091;28;19924;-70
2023/10/14 08:25:54;;;;;;;;;;;18.70;71.60;;;;;;5090644;28;20038;-70
2023/10/14 08:28:21;;;;;;;;;;;18.70;71.60;;;;;;5090769;28;19920;-69
2023/10/14 08:30:46;;;;;;;;;;;18.70;71.60;;;;;;5094324;28;19920;-67
2023/10/14 08:33:12;;;;;;;;;;;18.70;71.50;;;;;;5093439;28;19950;-71
2023/10/14 08:35:42;;;;;;;;;;;18.70;71.40;;;;;;5094255;28;20424;-68
2023/10/14 08:38:11;;;;;;;;;;;18.70;71.40;;;;;;5094206;28;19969;-68
2023/10/14 08:40:37;;;;;;;;;;;18.70;71.20;;;;;;5095292;28;20284;-69
2023/10/14 08:43:05;;;;;;;;;;;18.70;71.10;;;;;;5093582;28;19924;-68
2023/10/14 08:45:35;;;;;;;;;;;18.70;71.10;;;;;;5094037;28;20298;-68
2023/10/14 08:48:01;;;;;;;;;;;18.70;71.00;;;;;;5094609;28;19920;-72
2023/10/14 08:50:29;;;;;;;;;;;18.70;70.90;;;;;;5093756;28;19921;-71
2023/10/14 08:52:56;;;;;;;;;;;18.80;70.90;;;;;;5093633;28;19990;-69
2023/10/14 08:55:22;;;;;;;;;;;18.80;71.00;;;;;;5093909;28;19924;-69
2023/10/14 08:57:48;;;;;;;;;;;18.80;71.10;;;;;;5095289;28;19924;-69
2023/10/14 09:00:19;;;;;;;;;;;18.80;71.10;;;;;;5093990;28;19920;-69
2023/10/14 09:02:45;;;;;;;;;;;18.80;71.00;;;;;;5093333;28;19931;-71
2023/10/14 09:05:11;;;;;;;;;;;18.80;70.80;;;;;;5093129;28;19975;-72
2023/10/14 09:07:38;;;;;;;;;;;18.80;70.70;;;;;;5093686;28;19978;-68
2023/10/14 09:10:04;;;;;;;;;;;18.80;70.60;;;;;;5093783;28;20375;-68
2023/10/14 09:12:30;;;;;;;;;;;18.80;70.60;;;;;;5092730;28;19959;-70
2023/10/14 09:14:55;;;;;;;;;;;18.70;70.40;;;;;;5092866;28;19924;-67
2023/10/14 09:17:21;;;;;;;;;;;18.70;70.40;;;;;;5093141;28;19927;-68
2023/10/14 09:19:47;;;;;;;;;;;18.70;70.30;;;;;;5093099;28;19920;-70
2023/10/14 09:25:00;;;;;;;;;;;18.80;70.00;;;;;;5089315;28;19912;-68
2023/10/14 09:27:26;;;;;;;;;;;18.80;70.00;;;;;;5088750;28;20406;-71
2023/10/14 09:29:52;;;;;;;;;;;18.80;70.00;;;;;;5088550;28;19983;-68
2023/10/14 09:32:18;;;;;;;;;;;18.80;70.00;;;;;;5087739;28;20380;-68
2023/10/14 09:34:44;;;;;;;;;;;18.80;70.00;;;;;;5087741;28;19947;-71
2023/10/14 09:37:11;;;;;;;;;;;18.80;70.00;;;;;;5088828;28;19920;-69
2023/10/14 09:39:41;;;;;;;;;;;18.80;69.90;;;;;;5088150;28;20326;-68
2023/10/14 09:42:11;;;;;;;;;;;18.80;69.80;;;;;;5087962;28;20388;-68
2023/10/14 09:44:40;;;;;;;;;;;18.80;69.80;;;;;;5087937;28;19946;-68
2023/10/14 09:47:10;;;;;;;;;;;18.80;69.80;;;;;;5089187;28;19924;-68
2023/10/14 09:49:37;;;;;;;;;;;18.90;69.80;;;;;;5087820;28;19978;-67
2023/10/14 09:52:03;;;;;;;;;;;18.90;69.70;;;;;;5087788;28;19932;-68
2023/10/14 09:54:30;;;;;;;;;;;18.90;69.70;;;;;;5087667;28;19932;-70
2023/10/14 09:56:55;;;;;;;;;;;18.90;69.60;;;;;;5088610;28;19927;-71
2023/10/14 09:59:22;;;;;;;;;;;18.90;69.60;;;;;;5089234;28;19920;-71
2023/10/14 10:01:47;;;;;;;;;;;18.90;69.60;;;;;;5088022;28;20330;-71
2023/10/14 10:04:15;;;;;;;;;;;18.90;69.50;;;;;;5088930;28;19932;-70
2023/10/14 10:06:49;;;;;;;;;;;18.90;69.50;;;;;;5086831;28;19920;-69
2023/10/14 10:11:57;;;;;;;;;;;18.90;69.50;;;;;;5109225;27;19916;-69
2023/10/14 10:14:24;;;;;;;;;;;19.00;69.40;;;;;;5108449;28;20391;-70
2023/10/14 10:16:52;;;;;;;;;;;18.90;69.20;;;;;;5109006;28;19967;-68
2023/10/14 10:19:18;;;;;;;;;;;18.90;69.10;;;;;;5109058;28;20325;-69
2023/10/14 10:22:03;;;;;;;;;;;19.00;69.10;;;;;;5108930;28;19920;-69
2023/10/14 10:24:34;;;;;;;;;;;18.90;69.00;;;;;;5108282;28;19927;-71
2023/10/14 10:29:51;;;;;;;;;;;18.90;69.00;;;;;;5109494;27;19922;-68
2023/10/14 10:32:18;;;;;;;;;;;18.90;68.90;;;;;;5097476;28;19921;-65
2023/10/14 10:35:04;;;;;;;;;;;18.90;68.90;;;;;;5126890;27;19926;-69
2023/10/14 10:37:31;;;;;;;;;;;18.90;68.80;;;;;;5108930;28;19977;-69
2023/10/14 10:39:56;;;;;;;;;;;18.90;68.80;;;;;;5108447;28;19946;-69
2023/10/14 10:42:23;;;;;;;;;;;18.90;68.90;;;;;;5107706;28;20518;-69
2023/10/14 10:44:49;;;;;;;;;;;18.90;68.90;;;;;;5108631;28;20275;-71
2023/10/14 10:47:15;;;;;;;;;;;18.90;68.90;;;;;;5108517;28;19927;-71
2023/10/14 10:50:01;;;;;;;;;;;18.90;69.00;;;;;;5109587;28;19920;-72
2023/10/14 10:52:28;;;;;;;;;;;18.80;69.00;;;;;;5108446;28;19920;-72
2023/10/14 10:54:55;;;;;;;;;;;18.90;69.00;;;;;;5108341;28;19923;-72
2023/10/14 10:57:21;;;;;;;;;;;18.90;69.00;;;;;;5108742;28;19994;-72
2023/10/14 10:59:47;;;;;;;;;;;18.80;69.00;;;;;;5108338;28;19931;-72
2023/10/14 11:02:13;;;;;;;;;;;18.80;69.00;;;;;;5108425;28;19945;-72
2023/10/14 11:04:39;;;;;;;;;;;18.80;69.10;;;;;;5109810;28;19966;-72
2023/10/14 11:07:05;;;;;;;;;;;18.80;69.20;;;;;;5109661;28;19920;-72
2023/10/14 11:09:31;;;;;;;;;;;18.80;69.40;;;;;;5108171;28;20371;-72
2023/10/14 11:12:00;;;;;;;;;;;18.80;69.10;;;;;;5109463;28;19920;-72
2023/10/14 11:14:26;;;;;;;;;;;18.80;69.10;;;;;;5109472;28;19924;-72
2023/10/14 11:16:56;;;;;;;;;;;18.80;69.10;;;;;;5108259;28;19931;-72
2023/10/14 11:19:21;;;;;;;;;;;18.80;69.10;;;;;;5108056;28;19920;-72
2023/10/14 11:21:49;;;;;;;;;;;18.80;69.10;;;;;;5109423;28;19927;-73
2023/10/14 11:24:15;;;;;;;;;;;18.70;69.00;;;;;;5108369;28;19947;-72
2023/10/14 11:26:44;;;;;;;;;;;18.70;69.00;;;;;;5107965;28;20375;-72
2023/10/14 11:29:10;;;;;;;;;;;18.70;69.00;;;;;;5124886;28;20302;-72
2023/10/14 11:31:39;;;;;;;;;;;18.70;69.00;;;;;;5111438;28;19920;-72
2023/10/14 11:34:04;;;;;;;;;;;18.80;69.00;;;;;;5111201;28;19998;-72
2023/10/14 11:36:30;;;;;;;;;;;18.60;68.90;;;;;;5111095;28;20031;-72
2023/10/14 11:38:58;;;;;;;;;;;18.70;69.00;;;;;;5110077;28;19930;-72
2023/10/14 11:41:25;;;;;;;;;;;18.70;69.00;;;;;;5097402;28;20010;-72
2023/10/14 11:43:51;;;;;;;;;;;18.70;68.90;;;;;;5097475;28;20358;-72
2023/10/14 11:46:17;;;;;;;;;;;18.70;68.80;;;;;;5097635;28;19923;-72
2023/10/14 11:48:44;;;;;;;;;;;18.70;68.90;;;;;;5115793;28;20405;-72
2023/10/14 11:51:12;;;;;;;;;;;18.70;68.80;;;;;;5131476;27;20378;-71
2023/10/14 11:53:46;;;;;;;;;;;18.60;68.70;;;;;;5115550;28;20290;-72
2023/10/14 11:56:13;;;;;;;;;;;18.60;68.70;;;;;;5097151;28;20014;-72
2023/10/14 11:58:40;;;;;;;;;;;18.60;68.70;;;;;;5097235;28;19920;-72
2023/10/14 12:01:06;;;;;;;;;;;18.60;68.70;;;;;;5097065;28;20011;-72
2023/10/14 12:03:32;;;;;;;;;;;18.60;68.60;;;;;;5131142;27;20116;-72
2023/10/14 12:05:58;;;;;;;;;;;18.60;68.70;;;;;;5097026;28;19920;-72
2023/10/14 12:08:26;;;;;;;;;;;18.60;68.70;;;;;;5096727;28;19930;-72
2023/10/14 12:10:52;;;;;;;;;;;18.60;68.60;;;;;;5131336;27;19920;-72
2023/10/14 12:13:18;;;;;;;;;;;18.50;68.60;;;;;;5114972;28;20018;-72
2023/10/14 12:15:44;;;;;;;;;;;18.60;68.60;;;;;;5097076;28;20002;-72
2023/10/14 12:18:13;;;;;;;;;;;18.60;68.60;;;;;;5130984;27;20404;-73
2023/10/14 12:20:40;;;;;;;;;;;18.50;68.50;;;;;;5096952;28;19919;-73
2023/10/14 12:23:06;;;;;;;;;;;18.50;68.50;;;;;;5096929;28;20443;-72
2023/10/14 12:25:32;;;;;;;;;;;18.50;68.50;;;;;;5114055;28;19920;-72
2023/10/14 12:27:57;;;;;;;;;;;18.50;68.50;;;;;;5094923;28;19953;-72
2023/10/14 12:30:58;;;;;;;;;;;18.50;68.50;;;;;;5095633;28;19920;-72
2023/10/14 12:33:18;;;;;;;;;;;18.50;68.40;;;;;;5096195;28;19942;-72
2023/10/14 12:35:44;;;;;;;;;;;18.50;69.20;;;;;;5114444;28;19959;-72
2023/10/14 12:38:15;;;;;;;;;;;18.50;68.40;;;;;;5096227;28;19947;-69
2023/10/14 12:40:43;;;;;;;;;;;18.50;68.40;;;;;;5095960;28;19923;-70
2023/10/14 12:43:12;;;;;;;;;;;18.50;68.30;;;;;;5096283;28;19955;-70
2023/10/14 12:45:38;;;;;;;;;;;18.50;68.30;;;;;;5096062;28;19946;-69
2023/10/14 12:48:09;;;;;;;;;;;18.50;68.30;;;;;;5096111;28;20394;-70
2023/10/14 12:50:40;;;;;;;;;;;18.50;68.30;;;;;;5095871;28;19920;-70
2023/10/14 12:53:08;;;;;;;;;;;18.50;68.20;;;;;;5095774;28;19973;-70
2023/10/14 12:55:35;;;;;;;;;;;18.50;68.20;;;;;;5114498;28;19923;-70
2023/10/14 12:58:02;;;;;;;;;;;18.50;68.20;;;;;;5114196;28;19926;-70
2023/10/14 13:00:29;;;;;;;;;;;18.50;68.20;;;;;;5114252;28;19981;-69
2023/10/14 13:02:56;;;;;;;;;;;18.50;68.10;;;;;;5095848;28;19920;-70
2023/10/14 13:05:21;;;;;;;;;;;18.50;68.00;;;;;;5096070;28;19927;-70
2023/10/14 13:07:47;;;;;;;;;;;18.50;67.90;;;;;;5113737;28;19924;-69
2023/10/14 13:10:18;;;;;;;;;;;18.50;67.80;;;;;;5095530;28;19946;-69
2023/10/14 13:12:45;;;;;;;;;;;18.50;67.80;;;;;;5114207;28;19920;-69
2023/10/14 13:15:11;;;;;;;;;;;18.50;67.70;;;;;;5095774;28;20014;-70
2023/10/14 13:17:36;;;;;;;;;;;18.50;67.70;;;;;;5095860;28;20002;-70
2023/10/14 13:20:02;;;;;;;;;;;18.50;67.70;;;;;;5095729;28;19926;-70
2023/10/14 13:22:29;;;;;;;;;;;18.50;67.70;;;;;;5113711;28;19923;-69
2023/10/14 13:24:54;;;;;;;;;;;18.50;67.60;;;;;;5095423;28;19969;-70
2023/10/14 13:27:20;;;;;;;;;;;18.50;67.60;;;;;;5095035;28;19920;-70
2023/10/14 13:29:46;;;;;;;;;;;18.40;67.50;;;;;;5129343;27;20116;-70
2023/10/14 13:32:16;;;;;;;;;;;18.50;67.50;;;;;;5113511;28;19920;-70
2023/10/14 13:34:41;;;;;;;;;;;18.40;67.50;;;;;;5113504;28;20364;-70
2023/10/14 13:37:08;;;;;;;;;;;18.40;67.40;;;;;;5095476;28;19958;-69
2023/10/14 13:39:35;;;;;;;;;;;18.50;67.40;;;;;;5113377;28;20298;-70
2023/10/14 13:42:00;;;;;;;;;;;18.40;67.30;;;;;;5129485;27;20015;-70
2023/10/14 13:44:26;;;;;;;;;;;18.50;67.30;;;;;;5113460;28;19966;-70
2023/10/14 13:46:51;;;;;;;;;;;18.50;67.30;;;;;;5129109;27;19919;-70
2023/10/14 13:49:23;;;;;;;;;;;18.40;67.20;;;;;;5094934;28;19920;-69
2023/10/14 13:51:52;;;;;;;;;;;18.40;67.20;;;;;;5113214;28;19923;-70
2023/10/14 13:54:20;;;;;;;;;;;18.40;67.20;;;;;;5095209;28;19926;-70
2023/10/14 13:56:45;;;;;;;;;;;18.40;67.20;;;;;;5113095;28;19930;-70
2023/10/14 13:59:11;;;;;;;;;;;18.40;67.10;;;;;;5095105;28;20013;-70
2023/10/14 14:01:37;;;;;;;;;;;18.40;67.00;;;;;;5113160;28;19965;-69
2023/10/14 14:04:03;;;;;;;;;;;18.40;66.90;;;;;;5094089;28;19929;-70
2023/10/14 14:06:29;;;;;;;;;;;18.40;66.90;;;;;;5082883;28;19923;-69
2023/10/14 14:08:55;;;;;;;;;;;18.40;66.80;;;;;;5082978;28;19920;-70
2023/10/14 14:11:20;;;;;;;;;;;18.40;66.70;;;;;;5082946;28;19927;-70
2023/10/14 14:13:46;;;;;;;;;;;18.40;66.70;;;;;;5074630;28;19931;-70
2023/10/14 14:16:12;;;;;;;;;;;18.40;66.60;;;;;;5108277;28;19960;-70
2023/10/14 14:18:38;;;;;;;;;;;18.40;66.60;;;;;;5092835;28;20074;-70
2023/10/14 14:21:04;;;;;;;;;;;18.40;66.50;;;;;;5094691;28;19927;-70
2023/10/14 14:23:30;;;;;;;;;;;18.40;66.40;;;;;;5094475;28;20287;-70
2023/10/14 14:25:56;;;;;;;;;;;18.40;66.40;;;;;;5094944;28;19926;-70
2023/10/14 14:28:22;;;;;;;;;;;18.30;66.30;;;;;;5094201;28;19923;-70
2023/10/14 14:30:49;;;;;;;;;;;18.30;66.30;;;;;;5094560;28;19926;-70
2023/10/14 14:33:15;;;;;;;;;;;18.30;66.20;;;;;;5112789;28;19920;-70
2023/10/14 14:35:42;;;;;;;;;;;18.30;66.30;;;;;;5112795;28;19926;-70
2023/10/14 14:38:11;;;;;;;;;;;18.40;66.30;;;;;;5094776;28;20011;-70
2023/10/14 14:40:40;;;;;;;;;;;18.30;66.20;;;;;;5094778;28;20287;-70
2023/10/14 14:43:06;;;;;;;;;;;18.30;66.10;;;;;;5112801;28;20279;-70
2023/10/14 14:45:35;;;;;;;;;;;18.30;66.10;;;;;;5094118;28;20010;-70
2023/10/14 14:48:00;;;;;;;;;;;18.30;66.10;;;;;;5094147;28;19931;-70
2023/10/14 14:50:29;;;;;;;;;;;18.30;66.10;;;;;;5109710;28;20006;-70
2023/10/14 14:52:57;;;;;;;;;;;18.30;66.10;;;;;;5092494;28;20238;-70